Currently 58°F in Murrieta, California, USA
58°F
79°F / 54°F
calm
0.00"
Monday, October 14, 2019 10:07 PM PDT

Murrieta, California Weather Summary
Last 36 Hours

Temperature Winds Hourly Humidity Dewpoint
Time Report Norm Report Norm Max Gusts Precip. Rpt. Norm Rpt. Norm Pressure
1Mon 10:07 PM  58.5°F  61°F  calm  2 mph  none  0.00"  88%  75%  55°F  53°F  30.01"
Mon 10:00 PM  58.6°F  61°F  calm  2 mph  7 mph  0.00"  88%  75%  55°F  53°F  30.01"
Mon 09:00 PM  60.1°F  63°F  5 mph SW  3 mph  13 mph  0.00"  87%  72%  56°F  54°F  29.99"
Mon 08:00 PM  61.0°F  65°F  8 mph SW  4 mph  14 mph  0.00"  85%  69%  56°F  54°F  29.98"
Mon 07:00 PM  64.8°F  68°F  1 mph SW  5 mph  18 mph  0.00"  77%  64%  57°F  55°F  29.95"
Mon 06:00 PM  68.3°F  71°F  9 mph SW  6 mph  17 mph  0.00"  68%  57%  57°F  55°F  29.92"
Mon 05:00 PM  72.0°F  75°F  calm  7 mph  19 mph  0.00"  60%  51%  57°F  55°F  29.91"
Mon 04:00 PM  74.4°F  78°F  calm  7 mph  17 mph  0.00"  53%  44%  56°F  54°F  29.90"
Mon 03:00 PM  78.7°F  79°F  calm  6 mph  10 mph  0.00"  31%  42%  44°F  53°F  29.90"
2Mon 02:42 PM  79.4°F  80°F  calm  6 mph  8 mph  ----  33%  41%  47°F  53°F  29.91"
Mon 02:00 PM  77.9°F  80°F  1 mph NW  6 mph  10 mph  0.00"  36%  41%  48°F  53°F  29.91"
Mon 01:00 PM  76.2°F  79°F  calm  5 mph  8 mph  0.00"  42%  42%  51°F  53°F  29.94"
Mon 12:00 PM  73.4°F  77°F  3 mph SE  4 mph  7 mph  0.00"  48%  45%  52°F  53°F  29.97"
Mon 11:00 AM  69.7°F  73°F  calm  3 mph  5 mph  0.00"  58%  52%  54°F  54°F  29.98"
Mon 10:00 AM  65.1°F  68°F  calm  2 mph  8 mph  0.00"  67%  63%  54°F  55°F  30.00"
Mon 09:00 AM  62.2°F  62°F  2 mph SW  1 mph  6 mph  0.00"  75%  76%  54°F  54°F  29.99"
Mon 08:00 AM  58.8°F  57°F  calm  1 mph  3 mph  0.00"  85%  84%  54°F  52°F  29.98"
Mon 07:00 AM  57.8°F  55°F  calm  1 mph  4 mph  0.00"  88%  84%  54°F  50°F  29.97"
Mon 06:00 AM  56.8°F  55°F  calm  1 mph  none  0.00"  89%  84%  54°F  50°F  29.96"
Mon 05:00 AM  56.2°F  56°F  calm  1 mph  3 mph  0.00"  91%  83%  53°F  50°F  29.95"
Mon 04:00 AM  54.4°F  56°F  calm  1 mph  1 mph  0.00"  92%  81%  52°F  50°F  29.93"
3Mon 03:31 AM  53.5°F  57°F  calm  1 mph  none  ----  91%  81%  51°F  51°F  29.93"
Mon 03:00 AM  54.4°F  57°F  calm  1 mph  3 mph  0.00"  91%  81%  52°F  51°F  29.93"
Mon 02:00 AM  54.6°F  58°F  1 mph SW  1 mph  6 mph  0.00"  90%  80%  52°F  51°F  29.94"
Mon 01:00 AM  55.5°F  58°F  4 mph SW  1 mph  5 mph  0.00"  90%  79%  52°F  52°F  29.93"
Mon 12:00 AM  57.1°F  59°F  2 mph SW  1 mph  9 mph  0.00"  88%  78%  54°F  52°F  29.94"
Sun 11:00 PM  58.3°F  60°F  2 mph SW  2 mph  8 mph  0.00"  89%  76%  55°F  52°F  29.93"
Sun 10:00 PM  59.4°F  61°F  calm  2 mph  none  0.00"  88%  74%  56°F  53°F  29.93"
Sun 09:00 PM  59.5°F  63°F  calm  3 mph  10 mph  0.00"  89%  72%  56°F  54°F  29.91"
Sun 08:00 PM  59.9°F  65°F  7 mph SW  4 mph  14 mph  0.00"  90%  68%  57°F  54°F  29.90"
Sun 07:00 PM  62.3°F  68°F  6 mph SW  5 mph  18 mph  0.00"  84%  64%  57°F  55°F  29.88"
Sun 06:00 PM  66.4°F  72°F  10 mph SW  6 mph  19 mph  0.00"  74%  56%  58°F  55°F  29.85"
Sun 05:00 PM  70.0°F  75°F  7 mph SW  7 mph  20 mph  0.00"  63%  49%  56°F  54°F  29.85"
Sun 04:00 PM  73.5°F  79°F  calm  7 mph  19 mph  0.00"  53%  43%  55°F  54°F  29.85"
Sun 03:00 PM  77.8°F  80°F  calm  6 mph  22 mph  0.00"  36%  41%  48°F  53°F  29.85"
Sun 02:00 PM  79.1°F  80°F  4 mph SW  6 mph  19 mph  0.00"  27%  40%  41°F  53°F  29.85"
Sun 01:00 PM  79.6°F  79°F  4 mph SW  5 mph  17 mph  0.00"  30%  41%  44°F  52°F  29.86"
Sun 12:00 PM  78.7°F  77°F  calm  5 mph  13 mph  0.00"  26%  44%  39°F  53°F  29.88"
Sun 11:00 AM  74.8°F  74°F  calm  3 mph  5 mph  0.00"  35%  51%  44°F  54°F  29.91"

  1. Current weather data. No green row appears if the current weather data is also the high or low for the current day.
  2. High temperature for the current day.
  3. Low temperature for the current day.

The Murrieta weather pages are a service of WeatherCurrents. Murrieta, California is located in the Temecula Valley, in southwestern Riverside County, at the junctions of the Interstate 15 and 215 highways.
Copyright ©2019  WeatherCurrents. All rights reserved. - Submit questions and comments - Privacy Policy

This page automatically refreshes every 10 minutes.